Time;durP1;ratioP1;P1;durP2;ratioP2;P2;SDS_P1;SDS_P2;PMS_P1;PMS_P2;Temp;Humidity;BMP_temperature;BMP_pressure;BME280_temperature;BME280_humidity;BME280_pressure;Samples;Min_cycle;Max_cycle;Signal;HPM_P1;HPM_P2
2022/08/09 00:01:47;;;;;;;1.70;1.60;;;24.10;63.00;;;;;;5094019;28;20183;-70
2022/08/09 00:04:22;;;;;;;1.50;1.33;;;24.10;63.00;;;;;;5079118;28;20267;-70
2022/08/09 00:06:48;;;;;;;1.35;1.25;;;24.10;63.00;;;;;;5081579;28;20184;-71
2022/08/09 00:09:16;;;;;;;1.40;1.40;;;24.10;63.10;;;;;;5116442;28;20225;-70
2022/08/09 00:11:43;;;;;;;1.60;1.50;;;24.10;63.10;;;;;;5094744;28;20192;-70
2022/08/09 00:14:10;;;;;;;1.65;1.55;;;24.10;63.10;;;;;;5115182;28;20187;-70
2022/08/09 00:16:35;;;;;;;1.88;1.65;;;24.10;63.20;;;;;;5116200;28;20164;-70
2022/08/09 00:19:03;;;;;;;1.50;1.40;;;24.10;63.20;;;;;;5098164;28;20671;-70
2022/08/09 00:21:28;;;;;;;1.60;1.50;;;24.10;63.20;;;;;;5116265;28;20176;-70
2022/08/09 00:23:54;;;;;;;1.70;1.60;;;24.10;64.00;;;;;;5080980;28;20558;-70
2022/08/09 00:26:21;;;;;;;1.77;1.67;;;24.10;63.30;;;;;;5080465;28;20275;-70
2022/08/09 00:28:47;;;;;;;1.63;1.52;;;24.10;63.20;;;;;;5116191;28;20204;-70
2022/08/09 00:31:12;;;;;;;1.80;1.70;;;24.10;63.20;;;;;;5116017;28;20192;-70
2022/08/09 00:33:40;;;;;;;1.30;1.30;;;24.10;63.20;;;;;;5097614;28;20215;-70
2022/08/09 00:36:06;;;;;;;1.60;1.50;;;24.10;63.20;;;;;;5097118;28;20184;-70
2022/08/09 00:38:32;;;;;;;1.83;1.73;;;24.10;63.20;;;;;;5097738;28;20408;-70
2022/08/09 00:40:58;;;;;;;1.75;1.30;;;24.10;63.20;;;;;;5115812;28;20184;-70
2022/08/09 00:43:24;;;;;;;1.80;1.42;;;24.10;63.20;;;;;;5115900;28;20180;-70
2022/08/09 00:45:50;;;;;;;1.73;1.63;;;24.10;63.10;;;;;;5080379;28;20184;-70
2022/08/09 00:48:16;;;;;;;1.42;1.33;;;24.10;63.20;;;;;;5080646;28;20204;-70
2022/08/09 00:50:42;;;;;;;1.60;1.50;;;24.10;63.20;;;;;;5097623;28;20188;-70
2022/08/09 00:53:11;;;;;;;1.50;1.40;;;24.10;63.10;;;;;;5097609;28;20250;-70
2022/08/09 00:55:39;;;;;;;2.03;1.65;;;24.10;63.10;;;;;;5114906;28;20240;-70
2022/08/09 00:58:05;;;;;;;1.60;1.50;;;24.10;63.20;;;;;;5097281;28;20200;-70
2022/08/09 01:00:33;;;;;;;1.50;1.40;;;24.10;63.20;;;;;;5097011;28;20180;-70
2022/08/09 01:03:16;;;;;;;1.77;1.67;;;24.10;63.20;;;;;;5080132;28;20191;-70
2022/08/09 01:06:08;;;;;;;1.52;1.42;;;24.10;63.20;;;;;;5113577;28;20188;-69
2022/08/09 01:08:46;;;;;;;1.67;1.58;;;24.10;63.30;;;;;;5106116;28;20224;-70
2022/08/09 01:11:40;;;;;;;1.35;1.30;;;24.10;63.30;;;;;;5097172;28;20202;-70
2022/08/09 01:14:16;;;;;;;1.50;1.40;;;24.10;63.20;;;;;;5096512;28;20283;-70
2022/08/09 01:16:45;;;;;;;1.60;1.50;;;24.10;63.20;;;;;;5096615;28;20187;-70
2022/08/09 01:19:34;;;;;;;1.52;1.42;;;24.00;63.20;;;;;;5096973;28;20215;-70
2022/08/09 01:22:27;;;;;;;1.80;1.67;;;24.10;63.20;;;;;;5096833;28;20187;-70
2022/08/09 01:25:39;;;;;;;1.40;1.30;;;24.10;63.30;;;;;;5113450;28;20180;-71
2022/08/09 01:28:09;;;;;;;1.58;1.45;;;24.10;63.20;;;;;;5096603;28;20766;-70
2022/08/09 01:30:39;;;;;;;1.77;1.60;;;24.00;63.10;;;;;;5114574;28;20180;-70
2022/08/09 01:33:08;;;;;;;1.75;1.65;;;24.00;63.20;;;;;;5096737;28;20211;-70
2022/08/09 01:36:12;;;;;;;1.70;1.60;;;24.00;63.10;;;;;;5096114;28;20168;-71
2022/08/09 01:38:46;;;;;;;1.80;1.70;;;24.00;63.10;;;;;;5096840;28;20252;-70
2022/08/09 01:41:18;;;;;;;1.75;1.65;;;24.00;63.20;;;;;;5114779;28;20241;-70
2022/08/09 01:43:49;;;;;;;1.80;1.70;;;24.00;63.20;;;;;;5114799;28;20172;-70
2022/08/09 01:46:20;;;;;;;1.80;1.70;;;24.00;63.20;;;;;;5112906;28;20195;-70
2022/08/09 01:48:51;;;;;;;1.70;1.60;;;24.00;63.20;;;;;;5096369;28;20294;-70
2022/08/09 01:51:20;;;;;;;1.80;1.70;;;24.00;63.20;;;;;;5079332;28;20215;-70
2022/08/09 01:53:48;;;;;;;1.95;1.80;;;24.10;63.20;;;;;;5079497;28;20245;-70
2022/08/09 01:56:16;;;;;;;1.90;1.80;;;24.00;63.10;;;;;;5095452;28;20188;-71
2022/08/09 01:58:44;;;;;;;1.70;1.60;;;24.00;63.10;;;;;;5096293;28;20200;-70
2022/08/09 02:01:14;;;;;;;1.52;1.42;;;24.00;63.10;;;;;;5113852;28;20184;-70
2022/08/09 02:03:41;;;;;;;1.50;1.48;;;24.00;63.20;;;;;;5095443;28;20725;-71
2022/08/09 02:06:09;;;;;;;1.80;1.70;;;24.00;63.20;;;;;;5095475;28;20187;-71
2022/08/09 02:08:41;;;;;;;1.80;1.70;;;24.00;63.10;;;;;;5095851;28;20215;-70
2022/08/09 02:11:11;;;;;;;1.60;1.50;;;24.00;63.20;;;;;;5096177;28;20180;-70
2022/08/09 02:13:38;;;;;;;2.85;1.50;;;24.00;63.30;;;;;;5095824;28;20211;-70
2022/08/09 02:16:08;;;;;;;2.13;1.63;;;24.00;63.30;;;;;;5095224;28;20188;-70
2022/08/09 02:18:36;;;;;;;1.65;1.55;;;24.00;63.20;;;;;;5079170;28;20206;-71
2022/08/09 02:21:10;;;;;;;1.23;1.23;;;24.00;63.20;;;;;;5092454;28;20191;-70
2022/08/09 02:23:48;;;;;;;1.50;1.50;;;24.00;63.20;;;;;;5095689;28;20184;-70
2022/08/09 02:26:17;;;;;;;1.70;1.60;;;24.00;63.20;;;;;;5094261;28;20203;-70
2022/08/09 02:28:50;;;;;;;1.70;1.60;;;24.00;63.20;;;;;;5112492;28;20203;-70
2022/08/09 02:31:27;;;;;;;1.45;1.38;;;24.00;63.20;;;;;;5113758;28;20187;-70
2022/08/09 02:33:58;;;;;;;1.63;1.52;;;24.00;63.20;;;;;;5081870;28;20219;-70
2022/08/09 02:36:33;;;;;;;1.58;1.48;;;24.00;63.20;;;;;;5099934;28;20184;-70
2022/08/09 02:39:06;;;;;;;1.75;1.65;;;24.00;63.20;;;;;;5095535;28;20191;-70
2022/08/09 02:41:48;;;;;;;1.70;1.60;;;24.00;63.40;;;;;;5095528;28;20258;-70
2022/08/09 02:44:26;;;;;;;1.60;1.50;;;24.00;63.30;;;;;;5095420;28;20571;-70
2022/08/09 02:46:57;;;;;;;1.80;1.70;;;24.00;63.30;;;;;;5094886;28;20320;-71
2022/08/09 02:49:23;;;;;;;1.63;1.52;;;24.00;63.30;;;;;;5113386;28;20678;-71
2022/08/09 02:51:56;;;;;;;2.00;1.90;;;24.00;63.20;;;;;;5078172;28;20218;-72
2022/08/09 02:54:24;;;;;;;1.60;1.50;;;23.90;63.20;;;;;;5112168;28;20185;-70
2022/08/09 02:56:52;;;;;;;1.58;1.50;;;24.00;63.20;;;;;;5112610;28;20180;-70
2022/08/09 02:59:20;;;;;;;1.42;1.40;;;23.90;63.20;;;;;;5094564;28;20180;-70
2022/08/09 03:01:48;;;;;;;1.70;1.60;;;23.90;63.20;;;;;;5112894;28;20187;-70
2022/08/09 03:04:16;;;;;;;1.55;1.48;;;24.00;63.30;;;;;;5078041;28;20191;-70
2022/08/09 03:06:44;;;;;;;1.63;1.52;;;24.00;63.30;;;;;;5077465;28;20195;-70
2022/08/09 03:09:12;;;;;;;1.80;1.70;;;23.90;63.20;;;;;;5094778;28;20199;-70
2022/08/09 03:11:39;;;;;;;1.90;1.80;;;24.00;63.40;;;;;;5113016;28;20263;-70
2022/08/09 03:14:07;;;;;;;1.80;1.70;;;23.90;63.30;;;;;;5112824;28;20215;-70
2022/08/09 03:16:33;;;;;;;1.55;1.45;;;24.00;63.40;;;;;;5112286;28;20172;-70
2022/08/09 03:19:02;;;;;;;1.92;1.83;;;23.90;63.30;;;;;;5077846;28;20223;-70
2022/08/09 03:21:29;;;;;;;1.70;1.60;;;23.90;63.30;;;;;;5112812;28;20184;-70
2022/08/09 03:23:55;;;;;;;2.10;1.70;;;23.90;63.30;;;;;;5094940;28;20180;-70
2022/08/09 03:26:22;;;;;;;1.70;1.60;;;23.90;63.30;;;;;;5093846;28;20205;-70
2022/08/09 03:28:50;;;;;;;1.85;1.75;;;23.90;63.30;;;;;;5094446;28;20235;-71
2022/08/09 03:31:17;;;;;;;1.67;1.58;;;23.90;63.20;;;;;;5111593;28;20198;-70
2022/08/09 03:33:44;;;;;;;1.70;1.60;;;23.90;63.20;;;;;;5112559;28;20220;-70
2022/08/09 03:36:10;;;;;;;1.80;1.70;;;23.90;63.30;;;;;;5110767;28;20188;-70
2022/08/09 03:38:39;;;;;;;1.73;1.45;;;23.90;63.30;;;;;;5112471;28;20200;-70
2022/08/09 03:41:04;;;;;;;1.48;1.40;;;23.90;63.30;;;;;;5112523;28;20186;-70
2022/08/09 03:43:30;;;;;;;1.80;1.70;;;23.90;63.30;;;;;;5111477;28;20176;-70
2022/08/09 03:45:56;;;;;;;2.00;1.77;;;23.90;63.30;;;;;;5093709;28;20669;-70
2022/08/09 03:48:24;;;;;;;1.73;1.63;;;23.90;63.30;;;;;;5112471;28;20204;-70
2022/08/09 03:50:53;;;;;;;1.77;1.67;;;23.90;63.30;;;;;;5094427;28;20180;-71
2022/08/09 03:53:21;;;;;;;2.25;1.83;;;23.90;63.40;;;;;;5077569;28;20216;-71
2022/08/09 03:55:48;;;;;;;2.00;1.90;;;23.90;63.30;;;;;;5111703;28;20180;-70
2022/08/09 03:58:16;;;;;;;1.95;1.85;;;23.90;63.40;;;;;;5094259;28;20223;-70
2022/08/09 04:00:44;;;;;;;1.70;1.60;;;23.90;63.40;;;;;;5093506;28;20658;-70
2022/08/09 04:03:10;;;;;;;1.65;1.55;;;23.90;63.40;;;;;;5094184;28;20196;-70
2022/08/09 04:05:36;;;;;;;1.83;1.73;;;23.90;63.40;;;;;;5110394;28;20267;-70
2022/08/09 04:08:02;;;;;;;2.25;2.05;;;23.90;63.40;;;;;;5093887;28;20208;-70
2022/08/09 04:10:28;;;;;;;1.70;1.60;;;23.90;63.40;;;;;;5093833;28;20188;-71
2022/08/09 04:12:54;;;;;;;1.60;1.50;;;23.90;63.40;;;;;;5076896;28;20214;-70
2022/08/09 04:15:22;;;;;;;1.63;1.52;;;23.90;63.40;;;;;;5092939;28;20270;-70
2022/08/09 04:17:49;;;;;;;1.75;1.38;;;23.90;63.30;;;;;;5094196;28;20203;-70
2022/08/09 04:20:16;;;;;;;1.80;1.70;;;23.90;63.40;;;;;;5093908;28;20574;-70
2022/08/09 04:22:44;;;;;;;1.73;1.63;;;23.90;63.40;;;;;;5077088;28;20184;-70
2022/08/09 04:25:12;;;;;;;2.03;1.70;;;23.80;63.20;;;;;;5093353;28;20188;-70
2022/08/09 04:27:41;;;;;;;1.60;1.50;;;23.90;63.30;;;;;;5110548;28;20208;-70
2022/08/09 04:30:18;;;;;;;1.60;1.50;;;23.90;63.30;;;;;;5112057;28;20192;-70
2022/08/09 04:32:45;;;;;;;1.35;1.35;;;23.90;63.40;;;;;;5112133;28;20200;-70
2022/08/09 04:35:12;;;;;;;1.70;1.60;;;23.90;63.30;;;;;;5093416;28;20295;-70
2022/08/09 04:37:38;;;;;;;1.80;1.70;;;23.90;63.30;;;;;;5111837;28;20257;-70
2022/08/09 04:40:07;;;;;;;1.90;1.80;;;23.80;64.00;;;;;;5076902;28;20180;-70
2022/08/09 04:42:33;;;;;;;1.92;1.83;;;23.90;63.30;;;;;;5093548;28;20180;-70
2022/08/09 04:45:00;;;;;;;1.90;1.70;;;23.90;63.40;;;;;;5093160;28;20628;-70
2022/08/09 04:47:27;;;;;;;1.50;1.50;;;23.90;63.40;;;;;;5093544;28;20220;-70
2022/08/09 04:49:54;;;;;;;1.67;1.58;;;23.80;63.30;;;;;;5095378;28;20226;-70
2022/08/09 04:52:24;;;;;;;1.98;1.67;;;23.90;63.40;;;;;;5115643;28;20215;-70
2022/08/09 04:54:50;;;;;;;1.63;1.52;;;23.90;63.40;;;;;;5096773;28;20226;-70
2022/08/09 04:57:17;;;;;;;1.60;1.50;;;23.90;63.40;;;;;;5115632;28;20231;-70
2022/08/09 04:59:43;;;;;;;1.80;1.70;;;23.80;63.20;;;;;;5115109;28;20180;-71
2022/08/09 05:02:09;;;;;;;1.70;1.60;;;23.80;63.30;;;;;;5097494;28;20184;-70
2022/08/09 05:04:35;;;;;;;1.75;1.65;;;23.80;63.30;;;;;;5115499;28;20180;-70
2022/08/09 05:07:01;;;;;;;1.70;1.60;;;23.80;63.30;;;;;;5114570;28;20214;-71
2022/08/09 05:09:29;;;;;;;1.48;1.40;;;23.80;63.30;;;;;;5115411;28;20183;-69
2022/08/09 05:11:55;;;;;;;1.77;1.67;;;23.90;63.40;;;;;;5097064;28;20220;-70
2022/08/09 05:14:21;;;;;;;1.83;1.73;;;23.80;63.30;;;;;;5097474;28;20635;-70
2022/08/09 05:16:47;;;;;;;1.60;1.52;;;23.80;63.30;;;;;;5096352;28;20310;-70
2022/08/09 05:19:14;;;;;;;1.90;1.80;;;23.80;63.30;;;;;;5115331;28;20183;-70
2022/08/09 05:21:42;;;;;;;1.73;1.63;;;23.80;63.20;;;;;;5097143;28;20176;-70
2022/08/09 05:24:08;;;;;;;1.70;1.60;;;23.90;63.40;;;;;;5114766;28;20267;-70
2022/08/09 05:26:34;;;;;;;1.80;1.70;;;23.80;63.20;;;;;;5096002;28;20329;-71
2022/08/09 05:29:00;;;;;;;1.73;1.63;;;23.80;63.20;;;;;;5096965;28;20203;-70
2022/08/09 05:31:26;;;;;;;1.65;1.55;;;23.80;63.30;;;;;;5096845;28;20177;-70
2022/08/09 05:33:52;;;;;;;1.70;1.60;;;23.90;63.40;;;;;;5114837;28;20309;-70
2022/08/09 05:36:17;;;;;;;2.00;1.90;;;23.90;63.50;;;;;;5095986;28;20203;-70
2022/08/09 05:38:43;;;;;;;1.40;1.40;;;23.80;63.40;;;;;;5113542;28;20243;-70
2022/08/09 05:41:09;;;;;;;1.92;1.83;;;23.80;63.30;;;;;;5114592;28;20220;-71
2022/08/09 05:43:35;;;;;;;1.55;1.45;;;23.80;64.20;;;;;;5114706;28;20176;-70
2022/08/09 05:46:02;;;;;;;1.63;1.52;;;23.80;63.30;;;;;;5114130;28;20261;-70
2022/08/09 05:48:28;;;;;;;1.70;1.60;;;23.80;63.30;;;;;;5096327;28;20200;-70
2022/08/09 05:50:54;;;;;;;1.90;1.80;;;23.80;63.40;;;;;;5114587;28;20188;-71
2022/08/09 05:53:21;;;;;;;1.58;1.48;;;23.80;63.30;;;;;;5096169;28;20291;-70
2022/08/09 05:55:47;;;;;;;1.65;1.55;;;23.80;63.20;;;;;;5078716;28;20252;-70
2022/08/09 05:58:12;;;;;;;1.70;1.60;;;23.80;63.30;;;;;;5096228;28;20283;-70
2022/08/09 06:00:38;;;;;;;1.90;1.80;;;23.80;63.40;;;;;;5113067;28;20191;-70
2022/08/09 06:03:04;;;;;;;1.92;1.83;;;23.80;63.30;;;;;;5078984;28;20211;-71
2022/08/09 06:05:33;;;;;;;1.40;1.40;;;23.80;63.30;;;;;;5078607;28;20184;-70
2022/08/09 06:07:59;;;;;;;1.67;1.58;;;23.80;63.30;;;;;;5095668;28;20243;-70
2022/08/09 06:10:37;;;;;;;1.60;1.50;;;23.80;63.20;;;;;;5114427;28;20647;-70
2022/08/09 06:13:09;;;;;;;1.70;1.60;;;23.80;63.20;;;;;;5114132;28;20253;-70
2022/08/09 06:15:35;;;;;;;1.45;1.35;;;23.80;63.20;;;;;;5095056;28;20322;-70
2022/08/09 06:18:01;;;;;;;1.23;1.23;;;23.80;63.20;;;;;;5095581;28;20298;-70
2022/08/09 06:20:27;;;;;;;1.70;1.60;;;23.80;63.20;;;;;;5095892;28;20304;-70
2022/08/09 06:22:53;;;;;;;1.63;1.40;;;23.80;63.20;;;;;;5095819;28;20195;-70
2022/08/09 06:25:19;;;;;;;1.48;1.38;;;23.80;63.30;;;;;;5095390;28;20255;-70
2022/08/09 06:27:45;;;;;;;1.60;1.50;;;23.80;63.20;;;;;;5113846;28;20303;-70
2022/08/09 06:30:11;;;;;;;1.80;1.70;;;23.80;63.30;;;;;;5078765;28;20188;-70
2022/08/09 06:32:37;;;;;;;2.00;1.90;;;23.80;63.40;;;;;;5113653;28;20565;-70
2022/08/09 06:35:04;;;;;;;1.40;1.30;;;23.80;63.30;;;;;;5078383;28;20242;-70
2022/08/09 06:37:29;;;;;;;1.58;1.48;;;23.80;63.30;;;;;;5095434;28;20204;-70
2022/08/09 06:39:55;;;;;;;1.70;1.60;;;23.80;63.20;;;;;;5113667;28;20183;-71
2022/08/09 06:42:21;;;;;;;1.70;1.60;;;23.80;63.30;;;;;;5095419;28;20643;-70
2022/08/09 06:44:47;;;;;;;2.08;1.98;;;23.80;63.20;;;;;;5112381;28;20184;-70
2022/08/09 06:47:14;;;;;;;1.58;1.48;;;23.80;63.30;;;;;;5112817;28;20231;-70
2022/08/09 06:49:40;;;;;;;1.92;1.83;;;23.80;63.40;;;;;;5113482;28;20241;-70
2022/08/09 06:52:06;;;;;;;1.58;1.50;;;23.80;63.20;;;;;;5113484;28;20215;-71
2022/08/09 06:54:32;;;;;;;1.52;1.42;;;23.80;63.30;;;;;;5112121;28;20222;-70
2022/08/09 06:56:57;;;;;;;1.60;1.52;;;23.80;63.30;;;;;;5077262;28;20192;-70
2022/08/09 06:59:24;;;;;;;1.40;1.40;;;23.80;63.20;;;;;;5077798;28;20192;-70
2022/08/09 07:01:50;;;;;;;1.52;1.42;;;23.80;63.20;;;;;;5095008;28;20176;-71
2022/08/09 07:04:16;;;;;;;1.90;1.75;;;23.80;63.20;;;;;;5078280;28;20225;-71
2022/08/09 07:06:41;;;;;;;1.55;1.45;;;23.80;63.30;;;;;;5094205;28;20184;-70
2022/08/09 07:09:07;;;;;;;1.67;1.58;;;23.80;63.20;;;;;;5077892;28;20199;-70
2022/08/09 07:11:33;;;;;;;1.48;1.48;;;23.80;63.10;;;;;;5095003;28;20188;-70
2022/08/09 07:13:59;;;;;;;1.65;1.55;;;23.80;63.20;;;;;;5112480;28;20696;-70
2022/08/09 07:16:25;;;;;;;1.50;1.50;;;23.80;63.10;;;;;;5094279;28;20176;-70
2022/08/09 07:18:51;;;;;;;1.48;1.45;;;23.80;63.10;;;;;;5111845;28;20710;-71
2022/08/09 07:21:17;;;;;;;1.70;1.60;;;23.80;63.20;;;;;;5094679;28;20180;-70
2022/08/09 07:23:42;;;;;;;1.30;1.30;;;23.80;63.20;;;;;;5094639;28;20188;-70
2022/08/09 07:26:09;;;;;;;1.60;1.50;;;23.80;63.20;;;;;;5094056;28;20184;-70
2022/08/09 07:28:35;;;;;;;1.60;1.50;;;23.80;63.20;;;;;;5094432;28;20208;-70
2022/08/09 07:31:03;;;;;;;1.45;1.35;;;23.80;63.20;;;;;;5094624;28;20190;-70
2022/08/09 07:33:30;;;;;;;1.45;1.45;;;23.80;63.10;;;;;;5112583;28;20212;-70
2022/08/09 07:35:56;;;;;;;1.55;1.45;;;23.80;63.20;;;;;;5093829;28;20176;-71
2022/08/09 07:38:22;;;;;;;1.60;1.50;;;23.80;63.10;;;;;;5112421;28;20225;-70
2022/08/09 07:40:48;;;;;;;1.42;1.33;;;23.80;63.20;;;;;;5112616;28;20191;-70
2022/08/09 07:43:14;;;;;;;1.70;1.60;;;23.80;63.20;;;;;;5112559;28;20274;-70
2022/08/09 07:45:40;;;;;;;1.60;1.50;;;23.80;63.20;;;;;;5111847;28;20236;-70
2022/08/09 07:48:08;;;;;;;1.60;1.48;;;23.80;63.10;;;;;;5094525;28;20208;-71
2022/08/09 07:50:39;;;;;;;1.38;1.30;;;23.80;63.00;;;;;;5111223;28;20188;-70
2022/08/09 07:53:08;;;;;;;1.60;1.50;;;23.80;63.10;;;;;;5112254;28;20702;-70
2022/08/09 07:55:35;;;;;;;1.50;1.42;;;23.80;63.00;;;;;;5076592;28;20191;-70
2022/08/09 07:58:01;;;;;;;1.50;1.48;;;23.80;63.00;;;;;;5094345;28;20208;-70
2022/08/09 08:00:28;;;;;;;1.70;1.60;;;23.80;62.80;;;;;;5093805;28;20271;-70
2022/08/09 08:02:59;;;;;;;1.70;1.60;;;23.90;62.80;;;;;;5076844;28;20195;-71
2022/08/09 08:05:25;;;;;;;1.65;1.60;;;23.90;62.50;;;;;;5093908;28;20184;-70
2022/08/09 08:07:51;;;;;;;1.70;1.60;;;23.90;62.50;;;;;;5112033;28;20207;-71
2022/08/09 08:10:17;;;;;;;1.80;1.70;;;24.00;62.40;;;;;;5094265;28;20199;-70
2022/08/09 08:12:44;;;;;;;1.60;1.50;;;24.10;62.70;;;;;;5112044;28;20215;-70
2022/08/09 08:15:14;;;;;;;1.67;1.55;;;24.00;62.70;;;;;;5093517;28;20681;-70
2022/08/09 08:17:41;;;;;;;1.90;1.80;;;24.00;62.50;;;;;;5077075;28;20200;-70
2022/08/09 08:20:08;;;;;;;1.75;1.65;;;24.00;62.90;;;;;;5112076;28;20647;-70
2022/08/09 08:22:34;;;;;;;1.98;1.70;;;24.00;62.70;;;;;;5110975;28;20184;-70
2022/08/09 08:24:59;;;;;;;1.70;1.60;;;24.10;62.70;;;;;;5095617;28;20550;-70
2022/08/09 08:27:26;;;;;;;2.85;1.50;;;24.10;62.70;;;;;;5080338;28;20227;-71
2022/08/09 08:29:53;;;;;;;1.50;1.40;;;24.10;62.70;;;;;;5116110;28;20225;-70
2022/08/09 08:32:21;;;;;;;1.48;1.40;;;24.10;62.70;;;;;;5116007;28;20215;-71
2022/08/09 08:34:47;;;;;;;1.50;1.40;;;24.10;62.70;;;;;;5080844;28;20184;-70
2022/08/09 08:37:13;;;;;;;1.70;1.60;;;24.10;62.90;;;;;;5080346;28;20575;-71
2022/08/09 08:39:39;;;;;;;1.60;1.50;;;24.10;62.50;;;;;;5116077;28;20184;-70
2022/08/09 08:42:05;;;;;;;1.63;1.52;;;24.10;62.70;;;;;;5097794;28;20187;-70
2022/08/09 08:44:35;;;;;;;1.60;1.50;;;24.20;62.40;;;;;;5080956;28;20184;-70
2022/08/09 08:47:03;;;;;;;1.58;1.48;;;24.20;62.80;;;;;;5115200;28;20191;-70
2022/08/09 08:49:33;;;;;;;1.60;1.50;;;24.20;62.70;;;;;;5115742;28;20259;-71
2022/08/09 08:52:00;;;;;;;1.60;1.50;;;24.20;62.30;;;;;;5115646;28;20191;-70
2022/08/09 08:54:25;;;;;;;1.40;1.30;;;24.20;62.50;;;;;;5097420;28;20184;-70
2022/08/09 08:56:52;;;;;;;1.30;1.30;;;24.20;62.60;;;;;;5096902;28;20208;-70
2022/08/09 08:59:19;;;;;;;1.67;1.58;;;24.20;62.70;;;;;;5115343;28;20176;-70
2022/08/09 09:01:46;;;;;;;1.52;1.45;;;24.20;62.60;;;;;;5115432;28;20172;-70
2022/08/09 09:04:13;;;;;;;1.48;1.45;;;24.20;62.80;;;;;;5097376;28;20185;-70
2022/08/09 09:06:43;;;;;;;1.45;1.38;;;24.20;62.60;;;;;;5096757;28;20212;-70
2022/08/09 09:09:11;;;;;;;1.55;1.45;;;24.20;62.50;;;;;;5097279;28;20192;-71
2022/08/09 09:11:39;;;;;;;1.27;1.27;;;24.20;62.70;;;;;;5115435;28;20202;-70
2022/08/09 09:14:29;;;;;;;1.73;1.63;;;24.20;62.50;;;;;;5096756;28;20244;-70
2022/08/09 09:16:55;;;;;;;1.80;1.70;;;24.20;62.70;;;;;;5114601;28;20207;-71
2022/08/09 09:19:20;;;;;;;1.40;1.30;;;24.30;62.90;;;;;;5080165;28;20180;-70
2022/08/09 09:21:59;;;;;;;1.65;1.55;;;24.30;63.00;;;;;;5097054;28;20176;-70
2022/08/09 09:24:37;;;;;;;1.75;1.65;;;24.30;62.60;;;;;;5079835;28;20192;-70
2022/08/09 09:27:05;;;;;;;1.55;1.45;;;24.30;62.40;;;;;;5113273;28;20196;-70
2022/08/09 09:29:34;;;;;;;1.40;1.40;;;24.30;62.70;;;;;;5114023;28;20726;-70
2022/08/09 09:32:01;;;;;;;1.40;1.30;;;24.30;62.50;;;;;;5113465;28;20194;-70
2022/08/09 09:34:28;;;;;;;2.10;1.48;;;24.30;62.50;;;;;;5113658;28;20190;-71
2022/08/09 09:36:55;;;;;;;1.50;1.40;;;24.30;62.40;;;;;;5113828;28;20557;-70
2022/08/09 09:39:23;;;;;;;1.50;1.40;;;24.30;62.50;;;;;;5113699;28;20180;-70
2022/08/09 09:41:50;;;;;;;1.80;1.50;;;24.30;62.40;;;;;;5096695;28;20184;-71
2022/08/09 09:44:27;;;;;;;1.50;1.40;;;24.30;62.30;;;;;;5096416;28;20199;-70
2022/08/09 09:47:05;;;;;;;1.35;1.30;;;24.30;62.50;;;;;;5112921;28;20183;-70
2022/08/09 09:49:31;;;;;;;1.75;1.35;;;24.30;62.40;;;;;;5096372;28;20177;-70
2022/08/09 09:52:10;;;;;;;1.45;1.38;;;24.30;62.30;;;;;;5096496;28;20184;-71
2022/08/09 09:54:39;;;;;;;1.45;1.45;;;24.30;62.50;;;;;;5096388;28;20253;-70
2022/08/09 09:57:21;;;;;;;1.48;1.40;;;24.30;62.60;;;;;;5078837;28;20239;-70
2022/08/09 09:59:50;;;;;;;1.65;1.55;;;24.30;62.40;;;;;;5078883;28;20241;-71
2022/08/09 10:02:18;;;;;;;1.30;1.30;;;24.30;62.40;;;;;;5113400;28;20645;-71
2022/08/09 10:05:00;;;;;;;1.80;1.70;;;24.30;62.30;;;;;;5114349;28;20184;-71
2022/08/09 10:07:27;;;;;;;1.77;1.67;;;24.30;62.40;;;;;;5095229;28;20214;-70
2022/08/09 10:09:57;;;;;;;2.13;1.60;;;24.30;62.40;;;;;;5094745;28;20177;-71
2022/08/09 10:12:36;;;;;;;1.50;1.40;;;24.30;62.20;;;;;;5096286;28;20218;-70
2022/08/09 10:15:14;;;;;;;1.60;1.50;;;24.30;62.20;;;;;;5079111;28;20639;-71
2022/08/09 10:17:42;;;;;;;1.50;1.40;;;24.30;62.20;;;;;;5096426;28;20770;-70
2022/08/09 10:20:18;;;;;;;1.88;1.60;;;24.30;62.40;;;;;;5095786;28;20639;-70
2022/08/09 10:22:47;;;;;;;1.42;1.33;;;24.30;61.90;;;;;;5095957;28;20217;-70
2022/08/09 10:25:13;;;;;;;1.80;1.50;;;24.30;62.40;;;;;;5095686;28;20188;-70
2022/08/09 10:27:42;;;;;;;1.30;1.30;;;24.30;62.30;;;;;;5112684;28;20636;-70
2022/08/09 10:30:09;;;;;;;1.38;1.30;;;24.30;62.20;;;;;;5095498;28;20184;-70
2022/08/09 10:32:35;;;;;;;1.60;1.50;;;24.30;62.00;;;;;;5095459;28;20360;-70
2022/08/09 10:35:02;;;;;;;1.55;1.45;;;24.30;62.00;;;;;;5078469;28;20180;-71
2022/08/09 10:37:28;;;;;;;1.58;1.48;;;24.40;62.00;;;;;;5077343;28;20204;-70
2022/08/09 10:39:55;;;;;;;1.55;1.42;;;24.30;61.90;;;;;;5095452;28;20337;-70
2022/08/09 10:42:21;;;;;;;2.00;1.80;;;24.30;62.00;;;;;;5113599;28;20172;-70
2022/08/09 10:45:02;;;;;;;1.73;1.40;;;24.30;62.40;;;;;;5095454;28;20267;-70
2022/08/09 10:47:47;;;;;;;1.80;1.70;;;24.30;61.90;;;;;;5093953;28;20200;-70
2022/08/09 10:53:39;;;;;;;2.00;1.45;;;24.30;62.30;;;;;;5113347;28;20208;-70
2022/08/09 10:56:22;;;;;;;1.30;1.30;;;24.30;62.20;;;;;;5094523;28;20191;-70
2022/08/09 10:58:52;;;;;;;1.60;1.50;;;24.30;62.00;;;;;;5112078;28;20224;-71
2022/08/09 11:01:30;;;;;;;1.42;1.33;;;24.40;62.20;;;;;;5094729;28;20225;-71
2022/08/09 11:04:14;;;;;;;1.50;1.40;;;24.30;61.80;;;;;;5094982;28;20211;-70
2022/08/09 11:06:44;;;;;;;1.70;1.60;;;24.30;62.00;;;;;;5094223;28;20199;-70
2022/08/09 11:09:15;;;;;;;1.50;1.40;;;24.30;62.00;;;;;;5113115;28;20184;-71
2022/08/09 11:12:00;;;;;;;1.65;1.52;;;24.40;62.20;;;;;;5113138;28;20195;-70
2022/08/09 11:14:34;;;;;;;1.40;1.30;;;24.30;62.20;;;;;;5113153;28;20212;-70
2022/08/09 11:17:01;;;;;;;1.50;1.40;;;24.30;62.00;;;;;;5077422;28;20219;-70
2022/08/09 11:20:38;;;;;;;1.63;1.52;;;24.30;61.60;;;;;;5112960;28;20181;-70
2022/08/09 11:23:04;;;;;;;1.80;1.70;;;24.30;61.30;;;;;;4994081;28;20192;-72
2022/08/09 11:25:30;;;;;;;2.08;1.50;;;24.40;61.90;;;;;;5084833;28;20241;-70
2022/08/09 11:27:59;;;;;;;1.63;1.52;;;24.30;61.80;;;;;;5094676;28;20208;-70
2022/08/09 11:30:28;;;;;;;1.70;1.60;;;24.40;61.90;;;;;;5094633;28;20190;-70
2022/08/09 11:33:16;;;;;;;1.40;1.30;;;24.40;62.20;;;;;;5094318;28;20208;-70
2022/08/09 11:35:46;;;;;;;1.65;1.50;;;24.40;62.00;;;;;;5093925;28;20192;-70
2022/08/09 11:38:22;;;;;;;1.55;1.45;;;24.40;62.00;;;;;;5111268;28;20214;-70
2022/08/09 11:40:50;;;;;;;1.60;1.50;;;24.40;61.80;;;;;;5111119;28;20241;-72
2022/08/09 11:43:26;;;;;;;1.67;1.58;;;24.40;61.50;;;;;;5077453;28;20590;-70
2022/08/09 11:46:02;;;;;;;1.92;1.77;;;24.40;61.60;;;;;;5076971;28;20211;-71
2022/08/09 11:48:44;;;;;;;1.40;1.30;;;24.40;61.50;;;;;;5112487;28;20226;-70
2022/08/09 11:51:10;;;;;;;1.60;1.50;;;24.40;61.50;;;;;;5077468;28;20180;-70
2022/08/09 11:53:38;;;;;;;1.52;1.42;;;24.40;61.50;;;;;;5112383;28;20712;-71
2022/08/09 11:56:13;;;;;;;1.42;1.35;;;24.40;61.70;;;;;;5110206;28;20172;-70
2022/08/09 11:58:47;;;;;;;1.42;1.33;;;24.40;61.70;;;;;;5094469;28;20199;-70
2022/08/09 12:01:15;;;;;;;1.40;1.30;;;24.40;61.80;;;;;;5110768;28;20182;-70
2022/08/09 12:03:46;;;;;;;2.58;1.30;;;24.40;61.50;;;;;;5112164;28;20191;-70
2022/08/09 12:06:18;;;;;;;1.42;1.33;;;24.40;61.40;;;;;;5093578;28;20568;-71
2022/08/09 12:08:54;;;;;;;1.40;1.30;;;24.40;61.20;;;;;;5111054;28;20243;-71
2022/08/09 12:11:24;;;;;;;1.58;1.48;;;24.40;60.90;;;;;;5094149;28;20198;-70
2022/08/09 12:14:06;;;;;;;1.60;1.50;;;24.40;60.80;;;;;;5076785;28;20208;-70
2022/08/09 12:16:40;;;;;;;1.27;1.17;;;24.40;61.20;;;;;;5089287;28;20606;-70
2022/08/09 12:19:09;;;;;;;1.50;1.40;;;24.40;61.00;;;;;;5073799;28;20180;-70
2022/08/09 12:21:46;;;;;;;1.23;1.23;;;24.40;61.00;;;;;;5073684;28;20617;-70
2022/08/09 12:24:23;;;;;;;1.65;1.55;;;24.40;61.00;;;;;;5073835;28;20180;-70
2022/08/09 12:26:50;;;;;;;1.85;1.17;;;24.40;60.70;;;;;;5073093;28;20184;-70
2022/08/09 12:29:21;;;;;;;1.60;1.50;;;24.40;60.60;;;;;;5073801;28;20587;-70
2022/08/09 12:31:48;;;;;;;1.60;1.30;;;24.40;60.70;;;;;;5079789;28;20606;-70
2022/08/09 12:34:32;;;;;;;1.67;1.58;;;24.40;60.70;;;;;;5110669;28;20216;-70
2022/08/09 12:36:59;;;;;;;1.70;1.60;;;24.40;60.60;;;;;;5093042;28;20767;-71
2022/08/09 12:39:25;;;;;;;1.50;1.40;;;24.40;61.40;;;;;;5112014;28;20284;-70
2022/08/09 12:41:51;;;;;;;1.63;1.52;;;24.40;60.60;;;;;;5093952;28;20196;-70
2022/08/09 12:44:18;;;;;;;1.38;1.27;;;24.40;60.60;;;;;;5093793;28;20184;-70
2022/08/09 12:46:46;;;;;;;1.50;1.40;;;24.40;60.60;;;;;;5111208;28;20184;-70
2022/08/09 12:49:13;;;;;;;1.85;1.30;;;24.40;60.60;;;;;;5093949;28;20188;-71
2022/08/09 12:51:39;;;;;;;1.40;1.30;;;24.40;60.60;;;;;;5111881;28;20176;-70
2022/08/09 12:54:06;;;;;;;1.52;1.40;;;24.40;60.50;;;;;;5110532;28;20216;-71
2022/08/09 12:56:46;;;;;;;1.52;1.42;;;24.40;60.60;;;;;;5111216;28;20756;-70
2022/08/09 12:59:21;;;;;;;1.75;1.65;;;24.40;60.80;;;;;;5093564;28;20195;-71
2022/08/09 13:02:04;;;;;;;1.50;1.40;;;24.40;60.90;;;;;;5093547;28;20184;-71
2022/08/09 13:04:31;;;;;;;1.23;1.23;;;24.40;60.30;;;;;;5093609;28;20188;-70